createdAt,value
2023-09-27T00:02:01.263Z,12.63
2023-09-27T00:06:13.953Z,16.50
2023-09-27T00:10:27.029Z,16.55
2023-09-27T00:14:39.415Z,18.70
2023-09-27T00:18:51.856Z,21.17
2023-09-27T00:23:04.897Z,17.80
2023-09-27T00:27:17.844Z,13.55
2023-09-27T00:31:30.264Z,19.33
2023-09-27T00:35:43.188Z,17.48
2023-09-27T00:39:57.615Z,16.92
2023-09-27T00:44:10.060Z,15.63
2023-09-27T00:48:23.201Z,16.83
2023-09-27T00:52:36.089Z,15.93
2023-09-27T00:56:49.218Z,17.63
2023-09-27T01:01:02.210Z,13.57
2023-09-27T01:05:14.846Z,14.45
2023-09-27T01:09:27.435Z,15.40
2023-09-27T01:13:40.296Z,14.93
2023-09-27T01:18:00.145Z,16.48
2023-09-27T01:22:12.596Z,16.48
2023-09-27T01:26:25.490Z,19.23
2023-09-27T01:30:39.162Z,10.60
2023-09-27T01:34:51.573Z,13.07
2023-09-27T01:39:04.152Z,19.33
2023-09-27T01:43:16.577Z,11.18
2023-09-27T01:47:30.142Z,17.55
2023-09-27T01:51:42.640Z,10.60
2023-09-27T01:55:55.052Z,14.88
2023-09-27T02:00:12.753Z,12.15
2023-09-27T02:04:25.507Z,11.43
2023-09-27T02:08:38.045Z,10.70
2023-09-27T02:12:51.106Z,11.35
2023-09-27T02:17:03.777Z,11.13
2023-09-27T02:21:16.377Z,14.32
2023-09-27T02:25:28.851Z,13.70
2023-09-27T02:29:44.318Z,13.73
2023-09-27T02:33:56.775Z,12.68
2023-09-27T02:38:10.604Z,14.88
2023-09-27T02:42:22.936Z,14.18
2023-09-27T02:46:35.291Z,10.18
2023-09-27T02:50:51.688Z,11.52
2023-09-27T02:55:04.190Z,13.85
2023-09-27T02:59:17.251Z,14.90
2023-09-27T03:03:32.498Z,7.85
2023-09-27T03:07:46.608Z,12.07
2023-09-27T03:11:59.404Z,17.42
2023-09-27T03:16:12.215Z,17.27
2023-09-27T03:20:25.726Z,12.68
2023-09-27T03:24:39.599Z,11.32
2023-09-27T03:28:53.328Z,16.38
2023-09-27T03:33:07.344Z,13.70
2023-09-27T03:37:19.782Z,12.82
2023-09-27T03:41:32.305Z,13.57
2023-09-27T03:45:44.969Z,12.70
2023-09-27T03:49:57.774Z,16.27
2023-09-27T03:54:10.647Z,13.25
2023-09-27T03:58:23.210Z,15.90
2023-09-27T04:02:35.710Z,12.73
2023-09-27T04:06:50.665Z,12.93
2023-09-27T04:11:07.991Z,13.50
2023-09-27T04:15:20.362Z,13.20
2023-09-27T04:19:33.109Z,17.73
2023-09-27T04:23:45.888Z,11.00
2023-09-27T04:27:58.305Z,15.55
2023-09-27T04:32:11.304Z,14.20
2023-09-27T04:36:23.706Z,11.40
2023-09-27T04:40:36.076Z,12.02
2023-09-27T04:44:48.455Z,15.93
2023-09-27T04:49:00.825Z,13.68
2023-09-27T04:53:13.434Z,15.45
2023-09-27T04:57:26.255Z,18.77
2023-09-27T05:01:38.760Z,14.00
2023-09-27T05:05:51.156Z,18.33
2023-09-27T05:10:04.203Z,21.15
2023-09-27T05:14:16.519Z,17.40
2023-09-27T05:18:29.040Z,26.00
2023-09-27T05:22:42.578Z,29.98
2023-09-27T05:26:59.363Z,21.35
2023-09-27T05:31:11.904Z,36.17
2023-09-27T05:35:25.256Z,17.77
2023-09-27T05:39:37.682Z,19.17
2023-09-27T05:43:50.108Z,31.65
2023-09-27T05:48:02.921Z,22.92
2023-09-27T05:52:18.411Z,22.48
2023-09-27T05:56:30.901Z,26.42
2023-09-27T06:00:48.142Z,21.25
2023-09-27T06:05:02.006Z,32.13
2023-09-27T06:09:14.569Z,32.03
2023-09-27T06:13:27.918Z,33.03
2023-09-27T06:17:40.590Z,35.17
2023-09-27T06:21:55.660Z,25.65
2023-09-27T06:26:08.897Z,20.80
2023-09-27T06:30:21.928Z,24.25
2023-09-27T06:34:34.603Z,26.55
2023-09-27T06:38:47.761Z,37.00
2023-09-27T06:43:00.953Z,32.40
2023-09-27T06:47:15.249Z,25.73
2023-09-27T06:51:28.258Z,24.65
2023-09-27T06:55:41.014Z,25.67
2023-09-27T06:59:53.486Z,26.35
2023-09-27T07:04:06.426Z,28.25
2023-09-27T07:08:18.870Z,33.50
2023-09-27T07:12:32.297Z,33.58
2023-09-27T07:16:54.993Z,32.67
2023-09-27T07:21:16.073Z,26.10
2023-09-27T07:25:29.987Z,30.55
2023-09-27T07:29:42.390Z,32.85
2023-09-27T07:33:56.797Z,19.00
2023-09-27T07:38:11.166Z,34.65
2023-09-27T07:42:23.567Z,43.38
2023-09-27T07:46:36.897Z,31.42
2023-09-27T07:50:49.567Z,36.03
2023-09-27T07:55:05.746Z,32.28
2023-09-27T07:59:19.321Z,20.00
2023-09-27T08:03:31.853Z,24.35
2023-09-27T08:07:47.248Z,18.85
2023-09-27T08:11:59.755Z,21.98
2023-09-27T08:16:13.654Z,15.65
2023-09-27T08:20:26.136Z,13.88
2023-09-27T08:24:39.931Z,19.48
2023-09-27T08:28:52.534Z,21.90
2023-09-27T08:33:06.042Z,29.80
2023-09-27T08:37:19.414Z,28.15
2023-09-27T08:41:32.262Z,24.17
2023-09-27T08:45:47.076Z,21.27
2023-09-27T08:50:00.186Z,20.40
2023-09-27T08:54:17.993Z,16.65
2023-09-27T08:58:31.270Z,23.63
2023-09-27T09:02:48.879Z,33.10
2023-09-27T09:07:03.337Z,25.42
2023-09-27T09:11:20.507Z,25.77
2023-09-27T09:15:48.690Z,18.33
2023-09-27T09:20:16.997Z,15.87
2023-09-27T09:24:30.162Z,16.75
2023-09-27T09:29:01.630Z,23.60
2023-09-27T09:33:19.364Z,19.92
2023-09-27T09:37:31.815Z,14.25
2023-09-27T09:41:54.824Z,14.98
2023-09-27T09:46:09.870Z,15.23
2023-09-27T09:50:22.485Z,14.80
2023-09-27T09:54:49.068Z,9.70
2023-09-27T09:59:08.974Z,12.57
2023-09-27T10:03:24.081Z,11.52
2023-09-27T10:07:36.911Z,14.70
2023-09-27T10:11:50.274Z,14.98
2023-09-27T10:16:07.128Z,16.67
2023-09-27T10:20:23.765Z,13.30
2023-09-27T10:24:37.420Z,10.80
2023-09-27T10:29:05.453Z,13.30
2023-09-27T10:33:18.220Z,9.20
2023-09-27T10:38:00.040Z,7.72
2023-09-27T10:42:12.604Z,14.65
2023-09-27T10:46:25.679Z,11.82
2023-09-27T10:50:38.088Z,9.90
2023-09-27T10:54:51.957Z,11.13
2023-09-27T10:59:06.029Z,10.75
2023-09-27T11:03:20.346Z,12.07
2023-09-27T11:07:49.784Z,8.15
2023-09-27T11:12:02.299Z,16.88
2023-09-27T11:16:16.136Z,12.70
2023-09-27T11:20:28.402Z,12.43
2023-09-27T11:24:54.967Z,9.32
2023-09-27T11:29:12.697Z,9.98
2023-09-27T11:38:23.856Z,10.10
2023-09-27T11:47:15.859Z,10.60
2023-09-27T11:51:28.584Z,11.15
2023-09-27T11:55:41.299Z,10.73
2023-09-27T11:59:53.623Z,8.98
2023-09-27T12:04:07.214Z,12.40
2023-09-27T12:08:19.936Z,14.63
2023-09-27T12:12:32.472Z,7.05
2023-09-27T12:16:44.835Z,7.60
2023-09-27T12:20:59.187Z,9.90
2023-09-27T12:25:13.164Z,12.13
2023-09-27T12:29:25.585Z,9.55
2023-09-27T12:33:38.231Z,8.15
2023-09-27T12:37:51.238Z,10.43
2023-09-27T12:42:03.626Z,7.28
2023-09-27T12:46:16.126Z,10.30
2023-09-27T12:50:28.584Z,10.48
2023-09-27T12:54:41.057Z,10.57
2023-09-27T12:58:53.501Z,12.30
2023-09-27T13:03:08.607Z,8.05
2023-09-27T13:07:20.998Z,10.70
2023-09-27T13:11:34.626Z,12.38
2023-09-27T13:15:47.169Z,13.13
2023-09-27T13:19:59.936Z,11.93
2023-09-27T13:24:12.504Z,9.82
2023-09-27T13:28:25.338Z,11.85
2023-09-27T13:32:37.932Z,11.60
2023-09-27T13:36:51.199Z,13.18
2023-09-27T13:41:03.655Z,11.65
2023-09-27T13:45:16.152Z,13.57
2023-09-27T13:49:28.672Z,13.18
2023-09-27T13:53:41.073Z,17.70
2023-09-27T13:57:53.790Z,14.30
2023-09-27T14:02:07.677Z,11.57
2023-09-27T14:06:21.133Z,9.88
2023-09-27T14:10:33.639Z,9.80
2023-09-27T14:14:45.936Z,17.38
2023-09-27T14:18:59.305Z,9.88
2023-09-27T14:23:11.885Z,13.90
2023-09-27T14:27:26.549Z,16.52
2023-09-27T14:31:39.063Z,12.05
2023-09-27T14:35:53.209Z,15.95
2023-09-27T14:40:06.404Z,16.27
2023-09-27T14:44:18.865Z,13.07
2023-09-27T14:48:31.350Z,13.93
2023-09-27T14:52:43.931Z,11.75
2023-09-27T14:56:58.742Z,10.55
2023-09-27T15:01:11.321Z,11.50
2023-09-27T15:05:24.332Z,10.15
2023-09-27T15:09:36.774Z,12.30
2023-09-27T15:13:49.163Z,11.02
2023-09-27T15:18:01.614Z,19.98
2023-09-27T15:22:16.019Z,18.98
2023-09-27T15:26:28.601Z,19.58
2023-09-27T15:30:42.238Z,14.30
2023-09-27T15:34:54.558Z,13.02
2023-09-27T15:39:07.955Z,16.00
2023-09-27T15:43:20.414Z,18.63
2023-09-27T15:47:32.895Z,18.40
2023-09-27T15:51:45.698Z,16.17
2023-09-27T15:55:58.252Z,20.95
2023-09-27T16:00:12.838Z,17.55
2023-09-27T16:04:26.320Z,27.05
2023-09-27T16:08:40.197Z,22.15
2023-09-27T16:12:52.669Z,20.25
2023-09-27T16:17:05.636Z,21.88
2023-09-27T16:21:24.092Z,21.35
2023-09-27T16:25:37.687Z,21.30
2023-09-27T16:29:50.020Z,30.67
2023-09-27T16:34:04.180Z,19.23
2023-09-27T16:38:16.523Z,39.42
2023-09-27T16:42:29.449Z,33.08
2023-09-27T16:46:41.893Z,34.70
2023-09-27T16:50:54.333Z,23.50
2023-09-27T16:55:07.184Z,25.23
2023-09-27T16:59:19.528Z,29.33
2023-09-27T17:03:33.412Z,23.77
2023-09-27T17:07:48.069Z,35.67
2023-09-27T17:12:00.458Z,26.73
2023-09-27T17:16:13.476Z,28.15
2023-09-27T17:20:26.943Z,32.13
2023-09-27T17:24:39.231Z,22.38
2023-09-27T17:28:52.257Z,25.20
2023-09-27T17:33:05.316Z,28.13
2023-09-27T17:37:18.424Z,29.40
2023-09-27T17:41:31.141Z,25.80
2023-09-27T17:45:43.680Z,23.85
2023-09-27T17:49:56.159Z,32.83
2023-09-27T17:54:12.331Z,34.40
2023-09-27T17:58:24.703Z,27.83
2023-09-27T18:02:37.953Z,34.85
2023-09-27T18:06:50.530Z,40.85
2023-09-27T18:11:14.724Z,37.30
2023-09-27T18:15:28.685Z,28.58
2023-09-27T18:19:41.455Z,28.58
2023-09-27T18:23:55.800Z,30.98
2023-09-27T18:28:09.741Z,28.25
2023-09-27T18:32:22.801Z,32.15
2023-09-27T18:36:36.346Z,22.30
2023-09-27T18:40:50.214Z,25.33
2023-09-27T18:45:02.615Z,27.80
2023-09-27T18:49:14.975Z,27.40
2023-09-27T18:53:27.377Z,33.67
2023-09-27T18:57:39.947Z,30.85
2023-09-27T19:01:52.495Z,22.17
2023-09-27T19:06:05.111Z,29.90
2023-09-27T19:10:18.342Z,41.65
2023-09-27T19:14:30.695Z,35.03
2023-09-27T19:18:43.071Z,29.65
2023-09-27T19:22:55.915Z,26.15
2023-09-27T19:27:08.276Z,42.75
2023-09-27T19:31:20.752Z,42.80
2023-09-27T19:35:33.161Z,42.28
2023-09-27T19:39:45.509Z,36.25
2023-09-27T19:43:57.984Z,49.92
2023-09-27T19:48:10.353Z,29.02
2023-09-27T19:52:22.837Z,25.30
2023-09-27T19:56:35.975Z,29.80
2023-09-27T20:00:49.003Z,31.73
2023-09-27T20:05:01.551Z,40.63
2023-09-27T20:09:14.168Z,33.95
2023-09-27T20:13:26.570Z,38.05
2023-09-27T20:17:43.486Z,24.83
2023-09-27T20:21:57.071Z,28.55
2023-09-27T20:26:09.794Z,29.13
2023-09-27T20:30:22.266Z,29.15
2023-09-27T20:34:34.636Z,30.00
2023-09-27T20:38:52.097Z,20.73
2023-09-27T20:43:05.233Z,18.33
2023-09-27T20:47:18.036Z,19.38
2023-09-27T20:51:30.457Z,16.38
2023-09-27T20:55:43.030Z,13.10
2023-09-27T20:59:55.370Z,17.35
2023-09-27T21:04:08.246Z,19.48
2023-09-27T21:08:21.768Z,15.90
2023-09-27T21:12:34.158Z,12.38
2023-09-27T21:16:46.580Z,15.23
2023-09-27T21:20:58.849Z,14.80
2023-09-27T21:25:12.485Z,18.58
2023-09-27T21:29:26.768Z,11.73
2023-09-27T21:33:43.460Z,14.90
2023-09-27T21:37:57.398Z,13.00
2023-09-27T21:42:11.076Z,14.88
2023-09-27T21:46:23.496Z,12.73
2023-09-27T21:50:40.874Z,22.02
2023-09-27T21:54:54.150Z,13.80
2023-09-27T21:59:09.189Z,21.38
2023-09-27T22:03:27.430Z,11.70
2023-09-27T22:07:39.874Z,16.50
2023-09-27T22:11:53.420Z,18.02
2023-09-27T22:16:11.712Z,21.90
2023-09-27T22:20:25.798Z,15.13
2023-09-27T22:24:38.749Z,16.77
2023-09-27T22:28:51.063Z,10.43
2023-09-27T22:33:09.999Z,19.52
2023-09-27T22:37:25.554Z,15.13
2023-09-27T22:41:41.847Z,15.13
2023-09-27T22:45:54.196Z,19.63
2023-09-27T22:50:07.313Z,15.60
2023-09-27T22:54:22.049Z,16.35
2023-09-27T22:58:36.474Z,17.65
2023-09-27T23:02:59.360Z,14.32
2023-09-27T23:07:18.309Z,13.10
2023-09-27T23:11:40.791Z,16.77
2023-09-27T23:15:55.618Z,17.40
2023-09-27T23:20:10.650Z,17.60
2023-09-27T23:24:23.087Z,19.80
2023-09-27T23:28:38.077Z,20.52
2023-09-27T23:32:52.921Z,20.02
2023-09-27T23:37:15.885Z,12.85
2023-09-27T23:41:32.241Z,14.10
2023-09-27T23:45:46.870Z,15.52
2023-09-27T23:50:02.169Z,19.52
2023-09-27T23:54:15.121Z,16.38
2023-09-27T23:58:27.563Z,12.40
